sensor_id;sensor_type;location;lat;lon;timestamp;P1;durP1;ratioP1;P2;durP2;ratioP2
21418;SDS011;10870;51.384;10.316;2023-01-13T00:00:18;0.80;;;0.60;;
21418;SDS011;10870;51.384;10.316;2023-01-13T00:02:19;0.55;;;0.55;;
21418;SDS011;10870;51.384;10.316;2023-01-13T00:04:20;1.08;;;0.60;;
21418;SDS011;10870;51.384;10.316;2023-01-13T00:06:24;0.75;;;0.75;;
21418;SDS011;10870;51.384;10.316;2023-01-13T00:08:31;2.13;;;0.70;;
21418;SDS011;10870;51.384;10.316;2023-01-13T00:10:35;0.70;;;0.70;;
21418;SDS011;10870;51.384;10.316;2023-01-13T00:12:40;0.60;;;0.60;;
21418;SDS011;10870;51.384;10.316;2023-01-13T00:14:42;5.85;;;0.88;;
21418;SDS011;10870;51.384;10.316;2023-01-13T00:16:46;0.60;;;0.60;;
21418;SDS011;10870;51.384;10.316;2023-01-13T00:18:48;0.60;;;0.52;;
21418;SDS011;10870;51.384;10.316;2023-01-13T00:23:00;0.60;;;0.50;;
21418;SDS011;10870;51.384;10.316;2023-01-13T00:25:03;0.65;;;0.60;;
21418;SDS011;10870;51.384;10.316;2023-01-13T00:27:13;0.50;;;0.50;;
21418;SDS011;10870;51.384;10.316;2023-01-13T00:29:14;0.50;;;0.50;;
21418;SDS011;10870;51.384;10.316;2023-01-13T00:31:18;1.05;;;0.63;;
21418;SDS011;10870;51.384;10.316;2023-01-13T00:33:22;0.63;;;0.60;;
21418;SDS011;10870;51.384;10.316;2023-01-13T00:35:26;1.13;;;0.60;;
21418;SDS011;10870;51.384;10.316;2023-01-13T00:37:30;1.77;;;0.60;;
21418;SDS011;10870;51.384;10.316;2023-01-13T00:39:32;1.73;;;0.60;;
21418;SDS011;10870;51.384;10.316;2023-01-13T00:41:35;0.75;;;0.75;;
21418;SDS011;10870;51.384;10.316;2023-01-13T00:43:55;1.00;;;0.60;;
21418;SDS011;10870;51.384;10.316;2023-01-13T00:45:57;0.57;;;0.50;;
21418;SDS011;10870;51.384;10.316;2023-01-13T00:47:58;1.35;;;0.80;;
21418;SDS011;10870;51.384;10.316;2023-01-13T00:49:59;0.50;;;0.50;;
21418;SDS011;10870;51.384;10.316;2023-01-13T00:52:00;0.60;;;0.60;;
21418;SDS011;10870;51.384;10.316;2023-01-13T00:54:04;0.98;;;0.60;;
21418;SDS011;10870;51.384;10.316;2023-01-13T00:56:11;1.40;;;0.50;;
21418;SDS011;10870;51.384;10.316;2023-01-13T00:58:17;0.80;;;0.50;;
21418;SDS011;10870;51.384;10.316;2023-01-13T01:00:21;0.50;;;0.45;;
21418;SDS011;10870;51.384;10.316;2023-01-13T01:02:22;1.92;;;0.57;;
21418;SDS011;10870;51.384;10.316;2023-01-13T01:04:23;0.60;;;0.50;;
21418;SDS011;10870;51.384;10.316;2023-01-13T01:06:28;2.50;;;1.30;;
21418;SDS011;10870;51.384;10.316;2023-01-13T01:08:47;2.88;;;0.52;;
21418;SDS011;10870;51.384;10.316;2023-01-13T01:11:12;0.98;;;0.50;;
21418;SDS011;10870;51.384;10.316;2023-01-13T01:13:16;0.93;;;0.65;;
21418;SDS011;10870;51.384;10.316;2023-01-13T01:15:17;0.68;;;0.60;;
21418;SDS011;10870;51.384;10.316;2023-01-13T01:17:20;0.75;;;0.60;;
21418;SDS011;10870;51.384;10.316;2023-01-13T01:19:24;0.50;;;0.50;;
21418;SDS011;10870;51.384;10.316;2023-01-13T01:21:26;1.95;;;0.50;;
21418;SDS011;10870;51.384;10.316;2023-01-13T01:23:33;0.52;;;0.30;;
21418;SDS011;10870;51.384;10.316;2023-01-13T01:25:34;0.40;;;0.40;;
21418;SDS011;10870;51.384;10.316;2023-01-13T01:27:38;1.55;;;0.50;;
21418;SDS011;10870;51.384;10.316;2023-01-13T01:29:42;1.17;;;0.40;;
21418;SDS011;10870;51.384;10.316;2023-01-13T01:31:48;0.40;;;0.40;;
21418;SDS011;10870;51.384;10.316;2023-01-13T01:33:50;0.63;;;0.40;;
21418;SDS011;10870;51.384;10.316;2023-01-13T01:35:52;1.55;;;0.63;;
21418;SDS011;10870;51.384;10.316;2023-01-13T01:37:53;0.40;;;0.40;;
21418;SDS011;10870;51.384;10.316;2023-01-13T01:39:54;0.50;;;0.50;;
21418;SDS011;10870;51.384;10.316;2023-01-13T01:41:56;0.40;;;0.40;;
21418;SDS011;10870;51.384;10.316;2023-01-13T01:46:39;1.17;;;0.40;;
21418;SDS011;10870;51.384;10.316;2023-01-13T01:48:41;1.75;;;0.52;;
21418;SDS011;10870;51.384;10.316;2023-01-13T01:50:42;2.40;;;0.75;;
21418;SDS011;10870;51.384;10.316;2023-01-13T01:52:47;0.40;;;0.40;;
21418;SDS011;10870;51.384;10.316;2023-01-13T01:54:54;0.35;;;0.35;;
21418;SDS011;10870;51.384;10.316;2023-01-13T01:56:57;0.32;;;0.32;;
21418;SDS011;10870;51.384;10.316;2023-01-13T01:58:58;0.57;;;0.50;;
21418;SDS011;10870;51.384;10.316;2023-01-13T02:01:02;0.40;;;0.40;;
21418;SDS011;10870;51.384;10.316;2023-01-13T02:03:04;0.35;;;0.35;;
21418;SDS011;10870;51.384;10.316;2023-01-13T02:05:06;0.35;;;0.35;;
21418;SDS011;10870;51.384;10.316;2023-01-13T02:07:10;0.63;;;0.40;;
21418;SDS011;10870;51.384;10.316;2023-01-13T02:09:14;0.43;;;0.43;;
21418;SDS011;10870;51.384;10.316;2023-01-13T02:11:27;0.60;;;0.60;;
21418;SDS011;10870;51.384;10.316;2023-01-13T02:13:47;0.40;;;0.40;;
21418;SDS011;10870;51.384;10.316;2023-01-13T02:16:02;2.47;;;0.35;;
21418;SDS011;10870;51.384;10.316;2023-01-13T02:20:23;0.35;;;0.35;;
21418;SDS011;10870;51.384;10.316;2023-01-13T02:24:53;0.40;;;0.40;;
21418;SDS011;10870;51.384;10.316;2023-01-13T02:32:09;0.40;;;0.40;;
21418;SDS011;10870;51.384;10.316;2023-01-13T02:34:32;1.20;;;0.50;;
21418;SDS011;10870;51.384;10.316;2023-01-13T02:39:31;0.65;;;0.50;;
21418;SDS011;10870;51.384;10.316;2023-01-13T02:41:28;0.52;;;0.40;;
21418;SDS011;10870;51.384;10.316;2023-01-13T02:43:50;0.40;;;0.40;;
21418;SDS011;10870;51.384;10.316;2023-01-13T02:46:09;0.40;;;0.40;;
21418;SDS011;10870;51.384;10.316;2023-01-13T02:48:14;1.85;;;0.50;;
21418;SDS011;10870;51.384;10.316;2023-01-13T02:50:19;0.40;;;0.40;;
21418;SDS011;10870;51.384;10.316;2023-01-13T02:52:34;1.48;;;0.50;;
21418;SDS011;10870;51.384;10.316;2023-01-13T02:54:36;0.73;;;0.45;;
21418;SDS011;10870;51.384;10.316;2023-01-13T02:56:44;0.40;;;0.40;;
21418;SDS011;10870;51.384;10.316;2023-01-13T02:58:50;0.50;;;0.50;;
21418;SDS011;10870;51.384;10.316;2023-01-13T03:00:57;0.50;;;0.50;;
21418;SDS011;10870;51.384;10.316;2023-01-13T03:02:59;0.50;;;0.50;;
21418;SDS011;10870;51.384;10.316;2023-01-13T03:05:00;2.20;;;0.70;;
21418;SDS011;10870;51.384;10.316;2023-01-13T03:07:07;1.20;;;0.38;;
21418;SDS011;10870;51.384;10.316;2023-01-13T03:11:22;0.30;;;0.30;;
21418;SDS011;10870;51.384;10.316;2023-01-13T03:18:17;0.57;;;0.40;;
21418;SDS011;10870;51.384;10.316;2023-01-13T03:20:18;0.32;;;0.30;;
21418;SDS011;10870;51.384;10.316;2023-01-13T03:22:30;0.50;;;0.50;;
21418;SDS011;10870;51.384;10.316;2023-01-13T03:28:40;0.60;;;0.60;;
21418;SDS011;10870;51.384;10.316;2023-01-13T03:30:49;0.50;;;0.50;;
21418;SDS011;10870;51.384;10.316;2023-01-13T03:32:57;0.52;;;0.52;;
21418;SDS011;10870;51.384;10.316;2023-01-13T03:35:07;0.50;;;0.50;;
21418;SDS011;10870;51.384;10.316;2023-01-13T03:37:10;0.40;;;0.40;;
21418;SDS011;10870;51.384;10.316;2023-01-13T03:39:16;1.00;;;0.50;;
21418;SDS011;10870;51.384;10.316;2023-01-13T03:41:28;0.50;;;0.50;;
21418;SDS011;10870;51.384;10.316;2023-01-13T03:43:34;0.50;;;0.50;;
21418;SDS011;10870;51.384;10.316;2023-01-13T03:45:56;0.47;;;0.40;;
21418;SDS011;10870;51.384;10.316;2023-01-13T03:47:59;1.10;;;0.50;;
21418;SDS011;10870;51.384;10.316;2023-01-13T03:50:11;0.65;;;0.50;;
21418;SDS011;10870;51.384;10.316;2023-01-13T03:52:16;1.38;;;0.50;;
21418;SDS011;10870;51.384;10.316;2023-01-13T03:54:19;1.73;;;0.60;;
21418;SDS011;10870;51.384;10.316;2023-01-13T03:56:34;0.40;;;0.40;;
21418;SDS011;10870;51.384;10.316;2023-01-13T03:58:39;0.90;;;0.57;;
21418;SDS011;10870;51.384;10.316;2023-01-13T04:03:08;1.13;;;0.50;;
21418;SDS011;10870;51.384;10.316;2023-01-13T04:05:11;0.50;;;0.50;;
21418;SDS011;10870;51.384;10.316;2023-01-13T04:09:39;0.68;;;0.68;;
21418;SDS011;10870;51.384;10.316;2023-01-13T04:11:45;0.77;;;0.50;;
21418;SDS011;10870;51.384;10.316;2023-01-13T04:13:51;0.63;;;0.63;;
21418;SDS011;10870;51.384;10.316;2023-01-13T04:15:58;1.17;;;0.63;;
21418;SDS011;10870;51.384;10.316;2023-01-13T04:18:23;0.50;;;0.50;;
21418;SDS011;10870;51.384;10.316;2023-01-13T04:20:21;2.50;;;0.68;;
21418;SDS011;10870;51.384;10.316;2023-01-13T04:22:25;1.23;;;0.40;;
21418;SDS011;10870;51.384;10.316;2023-01-13T04:24:29;2.65;;;0.60;;
21418;SDS011;10870;51.384;10.316;2023-01-13T04:26:30;1.90;;;0.73;;
21418;SDS011;10870;51.384;10.316;2023-01-13T04:28:31;1.35;;;0.50;;
21418;SDS011;10870;51.384;10.316;2023-01-13T04:30:34;3.92;;;0.95;;
21418;SDS011;10870;51.384;10.316;2023-01-13T04:32:38;0.82;;;0.70;;
21418;SDS011;10870;51.384;10.316;2023-01-13T04:34:39;0.40;;;0.40;;
21418;SDS011;10870;51.384;10.316;2023-01-13T04:36:43;1.88;;;0.55;;
21418;SDS011;10870;51.384;10.316;2023-01-13T04:38:44;0.68;;;0.50;;
21418;SDS011;10870;51.384;10.316;2023-01-13T04:40:46;3.13;;;0.70;;
21418;SDS011;10870;51.384;10.316;2023-01-13T04:42:50;0.60;;;0.60;;
21418;SDS011;10870;51.384;10.316;2023-01-13T04:44:51;1.88;;;0.60;;
21418;SDS011;10870;51.384;10.316;2023-01-13T04:46:52;0.65;;;0.50;;
21418;SDS011;10870;51.384;10.316;2023-01-13T04:48:57;0.50;;;0.50;;
21418;SDS011;10870;51.384;10.316;2023-01-13T04:50:58;0.60;;;0.50;;
21418;SDS011;10870;51.384;10.316;2023-01-13T04:52:59;0.80;;;0.45;;
21418;SDS011;10870;51.384;10.316;2023-01-13T04:55:01;0.50;;;0.50;;
21418;SDS011;10870;51.384;10.316;2023-01-13T04:57:04;0.95;;;0.47;;
21418;SDS011;10870;51.384;10.316;2023-01-13T04:59:05;2.83;;;0.60;;
21418;SDS011;10870;51.384;10.316;2023-01-13T05:01:07;0.95;;;0.40;;
21418;SDS011;10870;51.384;10.316;2023-01-13T05:03:09;1.33;;;0.70;;
21418;SDS011;10870;51.384;10.316;2023-01-13T05:05:10;2.28;;;1.15;;
21418;SDS011;10870;51.384;10.316;2023-01-13T05:07:12;0.50;;;0.40;;
21418;SDS011;10870;51.384;10.316;2023-01-13T05:09:16;1.08;;;0.57;;
21418;SDS011;10870;51.384;10.316;2023-01-13T05:11:22;1.80;;;0.70;;
21418;SDS011;10870;51.384;10.316;2023-01-13T05:13:42;1.35;;;0.60;;
21418;SDS011;10870;51.384;10.316;2023-01-13T05:16:02;1.45;;;0.50;;
21418;SDS011;10870;51.384;10.316;2023-01-13T05:18:23;0.73;;;0.45;;
21418;SDS011;10870;51.384;10.316;2023-01-13T05:20:24;4.63;;;0.82;;
21418;SDS011;10870;51.384;10.316;2023-01-13T05:22:25;0.65;;;0.45;;
21418;SDS011;10870;51.384;10.316;2023-01-13T05:24:45;0.68;;;0.40;;
21418;SDS011;10870;51.384;10.316;2023-01-13T05:27:05;1.25;;;0.60;;
21418;SDS011;10870;51.384;10.316;2023-01-13T05:29:07;1.05;;;0.50;;
21418;SDS011;10870;51.384;10.316;2023-01-13T05:31:08;3.72;;;1.05;;
21418;SDS011;10870;51.384;10.316;2023-01-13T05:33:12;0.85;;;0.70;;
21418;SDS011;10870;51.384;10.316;2023-01-13T05:35:16;0.85;;;0.50;;
21418;SDS011;10870;51.384;10.316;2023-01-13T05:37:18;1.33;;;0.40;;
21418;SDS011;10870;51.384;10.316;2023-01-13T05:39:19;1.55;;;0.55;;
21418;SDS011;10870;51.384;10.316;2023-01-13T05:41:20;1.95;;;0.60;;
21418;SDS011;10870;51.384;10.316;2023-01-13T05:43:41;1.58;;;0.75;;
21418;SDS011;10870;51.384;10.316;2023-01-13T05:45:42;1.83;;;0.40;;
21418;SDS011;10870;51.384;10.316;2023-01-13T05:47:45;0.40;;;0.40;;
21418;SDS011;10870;51.384;10.316;2023-01-13T05:49:46;0.75;;;0.50;;
21418;SDS011;10870;51.384;10.316;2023-01-13T05:51:48;1.05;;;0.60;;
21418;SDS011;10870;51.384;10.316;2023-01-13T05:53:52;1.40;;;0.30;;
21418;SDS011;10870;51.384;10.316;2023-01-13T05:55:53;0.50;;;0.50;;
21418;SDS011;10870;51.384;10.316;2023-01-13T05:57:57;1.48;;;0.40;;
21418;SDS011;10870;51.384;10.316;2023-01-13T05:59:58;0.73;;;0.50;;
21418;SDS011;10870;51.384;10.316;2023-01-13T06:02:02;0.57;;;0.47;;
21418;SDS011;10870;51.384;10.316;2023-01-13T06:04:06;2.15;;;0.50;;
21418;SDS011;10870;51.384;10.316;2023-01-13T06:06:07;2.13;;;0.65;;
21418;SDS011;10870;51.384;10.316;2023-01-13T06:08:08;0.88;;;0.40;;
21418;SDS011;10870;51.384;10.316;2023-01-13T06:10:12;2.25;;;1.13;;
21418;SDS011;10870;51.384;10.316;2023-01-13T06:12:13;1.65;;;0.50;;
21418;SDS011;10870;51.384;10.316;2023-01-13T06:14:17;1.23;;;0.50;;
21418;SDS011;10870;51.384;10.316;2023-01-13T06:16:19;3.38;;;0.70;;
21418;SDS011;10870;51.384;10.316;2023-01-13T06:18:20;2.53;;;0.52;;
21418;SDS011;10870;51.384;10.316;2023-01-13T06:20:21;0.82;;;0.50;;
21418;SDS011;10870;51.384;10.316;2023-01-13T06:24:24;0.52;;;0.52;;
21418;SDS011;10870;51.384;10.316;2023-01-13T06:26:25;1.30;;;0.63;;
21418;SDS011;10870;51.384;10.316;2023-01-13T06:28:28;0.50;;;0.38;;
21418;SDS011;10870;51.384;10.316;2023-01-13T06:30:36;2.58;;;0.70;;
21418;SDS011;10870;51.384;10.316;2023-01-13T06:32:42;3.63;;;1.05;;
21418;SDS011;10870;51.384;10.316;2023-01-13T06:34:45;1.23;;;0.60;;
21418;SDS011;10870;51.384;10.316;2023-01-13T06:36:48;3.72;;;0.93;;
21418;SDS011;10870;51.384;10.316;2023-01-13T06:38:53;2.13;;;0.70;;
21418;SDS011;10870;51.384;10.316;2023-01-13T06:40:56;1.63;;;0.65;;
21418;SDS011;10870;51.384;10.316;2023-01-13T06:42:57;1.92;;;0.77;;
21418;SDS011;10870;51.384;10.316;2023-01-13T06:45:14;2.15;;;0.82;;
21418;SDS011;10870;51.384;10.316;2023-01-13T06:47:16;1.83;;;0.50;;
21418;SDS011;10870;51.384;10.316;2023-01-13T06:49:18;1.05;;;0.60;;
21418;SDS011;10870;51.384;10.316;2023-01-13T06:51:19;3.10;;;1.02;;
21418;SDS011;10870;51.384;10.316;2023-01-13T06:53:20;8.00;;;3.80;;
21418;SDS011;10870;51.384;10.316;2023-01-13T06:55:22;10.85;;;4.10;;
21418;SDS011;10870;51.384;10.316;2023-01-13T06:57:26;5.63;;;2.10;;
21418;SDS011;10870;51.384;10.316;2023-01-13T06:59:27;2.40;;;1.10;;
21418;SDS011;10870;51.384;10.316;2023-01-13T07:01:29;2.97;;;1.08;;
21418;SDS011;10870;51.384;10.316;2023-01-13T07:03:30;3.20;;;1.40;;
21418;SDS011;10870;51.384;10.316;2023-01-13T07:05:39;4.05;;;0.90;;
21418;SDS011;10870;51.384;10.316;2023-01-13T07:07:41;3.75;;;1.10;;
21418;SDS011;10870;51.384;10.316;2023-01-13T07:09:45;5.57;;;1.05;;
21418;SDS011;10870;51.384;10.316;2023-01-13T07:11:48;2.47;;;0.90;;
21418;SDS011;10870;51.384;10.316;2023-01-13T07:13:54;4.47;;;1.02;;
21418;SDS011;10870;51.384;10.316;2023-01-13T07:16:14;4.43;;;1.00;;
21418;SDS011;10870;51.384;10.316;2023-01-13T07:18:15;3.30;;;1.80;;
21418;SDS011;10870;51.384;10.316;2023-01-13T07:20:17;3.20;;;1.05;;
21418;SDS011;10870;51.384;10.316;2023-01-13T07:22:18;5.78;;;1.15;;
21418;SDS011;10870;51.384;10.316;2023-01-13T07:24:22;7.63;;;3.90;;
21418;SDS011;10870;51.384;10.316;2023-01-13T07:26:23;18.38;;;9.25;;
21418;SDS011;10870;51.384;10.316;2023-01-13T07:28:25;8.98;;;3.90;;
21418;SDS011;10870;51.384;10.316;2023-01-13T07:30:26;9.07;;;5.45;;
21418;SDS011;10870;51.384;10.316;2023-01-13T07:32:30;6.10;;;3.25;;
21418;SDS011;10870;51.384;10.316;2023-01-13T07:34:34;4.70;;;2.17;;
21418;SDS011;10870;51.384;10.316;2023-01-13T07:36:35;9.98;;;3.20;;
21418;SDS011;10870;51.384;10.316;2023-01-13T07:38:38;10.60;;;4.63;;
21418;SDS011;10870;51.384;10.316;2023-01-13T07:40:41;7.13;;;2.78;;
21418;SDS011;10870;51.384;10.316;2023-01-13T07:42:45;6.28;;;1.30;;
21418;SDS011;10870;51.384;10.316;2023-01-13T07:45:08;2.38;;;1.00;;
21418;SDS011;10870;51.384;10.316;2023-01-13T07:47:09;4.10;;;1.10;;
21418;SDS011;10870;51.384;10.316;2023-01-13T07:49:13;3.22;;;1.10;;
21418;SDS011;10870;51.384;10.316;2023-01-13T07:51:14;1.60;;;0.70;;
21418;SDS011;10870;51.384;10.316;2023-01-13T07:53:20;2.00;;;0.80;;
21418;SDS011;10870;51.384;10.316;2023-01-13T07:55:21;2.80;;;0.80;;
21418;SDS011;10870;51.384;10.316;2023-01-13T07:57:23;2.70;;;1.00;;
21418;SDS011;10870;51.384;10.316;2023-01-13T07:59:24;5.40;;;0.93;;
21418;SDS011;10870;51.384;10.316;2023-01-13T08:01:28;3.40;;;1.20;;
21418;SDS011;10870;51.384;10.316;2023-01-13T08:03:33;3.40;;;1.10;;
21418;SDS011;10870;51.384;10.316;2023-01-13T08:05:34;3.47;;;0.80;;
21418;SDS011;10870;51.384;10.316;2023-01-13T08:07:36;3.90;;;1.00;;
21418;SDS011;10870;51.384;10.316;2023-01-13T08:09:39;4.05;;;1.20;;
21418;SDS011;10870;51.384;10.316;2023-01-13T08:11:43;2.03;;;1.00;;
21418;SDS011;10870;51.384;10.316;2023-01-13T08:14:07;2.28;;;1.30;;
21418;SDS011;10870;51.384;10.316;2023-01-13T08:16:10;5.95;;;0.98;;
21418;SDS011;10870;51.384;10.316;2023-01-13T08:18:15;2.95;;;0.90;;
21418;SDS011;10870;51.384;10.316;2023-01-13T08:20:19;5.30;;;1.42;;
21418;SDS011;10870;51.384;10.316;2023-01-13T08:22:23;4.45;;;0.90;;
21418;SDS011;10870;51.384;10.316;2023-01-13T08:24:26;2.67;;;0.77;;
21418;SDS011;10870;51.384;10.316;2023-01-13T08:26:27;6.93;;;0.80;;
21418;SDS011;10870;51.384;10.316;2023-01-13T08:28:31;4.97;;;0.73;;
21418;SDS011;10870;51.384;10.316;2023-01-13T08:30:36;6.50;;;1.10;;
21418;SDS011;10870;51.384;10.316;2023-01-13T08:32:37;2.78;;;0.80;;
21418;SDS011;10870;51.384;10.316;2023-01-13T08:34:38;6.68;;;0.90;;
21418;SDS011;10870;51.384;10.316;2023-01-13T08:36:39;5.63;;;1.35;;
21418;SDS011;10870;51.384;10.316;2023-01-13T08:38:43;2.20;;;0.80;;
21418;SDS011;10870;51.384;10.316;2023-01-13T08:40:45;5.97;;;0.98;;
21418;SDS011;10870;51.384;10.316;2023-01-13T08:42:48;3.85;;;1.10;;
21418;SDS011;10870;51.384;10.316;2023-01-13T08:44:59;1.83;;;0.80;;
21418;SDS011;10870;51.384;10.316;2023-01-13T08:47:02;2.55;;;0.90;;
21418;SDS011;10870;51.384;10.316;2023-01-13T08:49:04;3.33;;;0.85;;
21418;SDS011;10870;51.384;10.316;2023-01-13T08:51:08;5.53;;;1.88;;
21418;SDS011;10870;51.384;10.316;2023-01-13T08:53:09;3.45;;;0.85;;
21418;SDS011;10870;51.384;10.316;2023-01-13T08:55:10;2.75;;;0.70;;
21418;SDS011;10870;51.384;10.316;2023-01-13T08:57:12;1.33;;;0.80;;
21418;SDS011;10870;51.384;10.316;2023-01-13T08:59:21;4.32;;;1.15;;
21418;SDS011;10870;51.384;10.316;2023-01-13T09:01:22;2.47;;;1.33;;
21418;SDS011;10870;51.384;10.316;2023-01-13T09:03:24;4.25;;;0.98;;
21418;SDS011;10870;51.384;10.316;2023-01-13T09:05:25;3.10;;;1.60;;
21418;SDS011;10870;51.384;10.316;2023-01-13T09:07:26;3.63;;;1.05;;
21418;SDS011;10870;51.384;10.316;2023-01-13T09:09:28;2.83;;;1.00;;
21418;SDS011;10870;51.384;10.316;2023-01-13T09:11:38;4.50;;;1.10;;
21418;SDS011;10870;51.384;10.316;2023-01-13T09:13:59;12.60;;;5.68;;
21418;SDS011;10870;51.384;10.316;2023-01-13T09:16:02;14.07;;;5.30;;
21418;SDS011;10870;51.384;10.316;2023-01-13T09:18:06;16.80;;;6.78;;
21418;SDS011;10870;51.384;10.316;2023-01-13T09:20:07;20.60;;;9.70;;
21418;SDS011;10870;51.384;10.316;2023-01-13T09:22:09;8.85;;;3.95;;
21418;SDS011;10870;51.384;10.316;2023-01-13T09:24:16;3.35;;;1.88;;
21418;SDS011;10870;51.384;10.316;2023-01-13T09:26:20;8.50;;;5.82;;
21418;SDS011;10870;51.384;10.316;2023-01-13T09:28:21;4.57;;;1.75;;
21418;SDS011;10870;51.384;10.316;2023-01-13T09:30:23;6.00;;;1.58;;
21418;SDS011;10870;51.384;10.316;2023-01-13T09:32:27;3.42;;;1.50;;
21418;SDS011;10870;51.384;10.316;2023-01-13T09:34:29;18.40;;;10.90;;
21418;SDS011;10870;51.384;10.316;2023-01-13T09:36:49;2.30;;;0.90;;
21418;SDS011;10870;51.384;10.316;2023-01-13T09:38:51;5.03;;;1.30;;
21418;SDS011;10870;51.384;10.316;2023-01-13T09:40:55;7.75;;;1.98;;
21418;SDS011;10870;51.384;10.316;2023-01-13T09:42:59;3.63;;;2.22;;
21418;SDS011;10870;51.384;10.316;2023-01-13T09:47:30;7.82;;;2.15;;
21418;SDS011;10870;51.384;10.316;2023-01-13T09:49:39;5.22;;;1.30;;
21418;SDS011;10870;51.384;10.316;2023-01-13T09:51:43;6.55;;;1.55;;
21418;SDS011;10870;51.384;10.316;2023-01-13T09:53:58;4.88;;;1.70;;
21418;SDS011;10870;51.384;10.316;2023-01-13T09:56:01;3.95;;;2.08;;
21418;SDS011;10870;51.384;10.316;2023-01-13T09:58:13;7.20;;;1.70;;
21418;SDS011;10870;51.384;10.316;2023-01-13T10:00:20;6.50;;;1.73;;
21418;SDS011;10870;51.384;10.316;2023-01-13T10:02:33;5.40;;;2.03;;
21418;SDS011;10870;51.384;10.316;2023-01-13T10:04:41;6.22;;;1.58;;
21418;SDS011;10870;51.384;10.316;2023-01-13T10:06:47;3.33;;;1.35;;
21418;SDS011;10870;51.384;10.316;2023-01-13T10:08:49;10.38;;;4.65;;
21418;SDS011;10870;51.384;10.316;2023-01-13T10:10:53;3.95;;;1.10;;
21418;SDS011;10870;51.384;10.316;2023-01-13T10:12:54;8.20;;;3.00;;
21418;SDS011;10870;51.384;10.316;2023-01-13T10:15:15;5.40;;;1.63;;
21418;SDS011;10870;51.384;10.316;2023-01-13T10:19:31;5.40;;;1.80;;
21418;SDS011;10870;51.384;10.316;2023-01-13T10:24:03;10.68;;;1.80;;
21418;SDS011;10870;51.384;10.316;2023-01-13T10:28:36;4.50;;;1.60;;
21418;SDS011;10870;51.384;10.316;2023-01-13T10:30:39;4.30;;;1.00;;
21418;SDS011;10870;51.384;10.316;2023-01-13T10:32:41;4.32;;;1.52;;
21418;SDS011;10870;51.384;10.316;2023-01-13T10:34:46;5.40;;;1.58;;
21418;SDS011;10870;51.384;10.316;2023-01-13T10:39:07;4.82;;;1.55;;
21418;SDS011;10870;51.384;10.316;2023-01-13T10:43:17;6.97;;;1.95;;
21418;SDS011;10870;51.384;10.316;2023-01-13T10:45:22;5.53;;;1.65;;
21418;SDS011;10870;51.384;10.316;2023-01-13T10:49:29;3.53;;;1.70;;
21418;SDS011;10870;51.384;10.316;2023-01-13T10:53:45;3.75;;;1.27;;
21418;SDS011;10870;51.384;10.316;2023-01-13T10:55:56;5.43;;;1.58;;
21418;SDS011;10870;51.384;10.316;2023-01-13T10:58:12;6.53;;;1.27;;
21418;SDS011;10870;51.384;10.316;2023-01-13T11:00:24;3.83;;;1.30;;
21418;SDS011;10870;51.384;10.316;2023-01-13T11:02:27;3.80;;;1.52;;
21418;SDS011;10870;51.384;10.316;2023-01-13T11:06:38;5.25;;;1.65;;
21418;SDS011;10870;51.384;10.316;2023-01-13T11:08:47;4.95;;;1.60;;
21418;SDS011;10870;51.384;10.316;2023-01-13T11:10:50;3.92;;;1.10;;
21418;SDS011;10870;51.384;10.316;2023-01-13T11:15:33;4.90;;;1.92;;
21418;SDS011;10870;51.384;10.316;2023-01-13T11:19:49;4.55;;;1.60;;
21418;SDS011;10870;51.384;10.316;2023-01-13T11:24:14;6.43;;;1.77;;
21418;SDS011;10870;51.384;10.316;2023-01-13T11:26:20;3.40;;;0.88;;
21418;SDS011;10870;51.384;10.316;2023-01-13T11:28:36;3.45;;;1.73;;
21418;SDS011;10870;51.384;10.316;2023-01-13T11:34:53;8.07;;;1.45;;
21418;SDS011;10870;51.384;10.316;2023-01-13T11:36:58;2.50;;;0.90;;
21418;SDS011;10870;51.384;10.316;2023-01-13T11:39:09;3.60;;;1.00;;
21418;SDS011;10870;51.384;10.316;2023-01-13T11:43:34;3.33;;;1.75;;
21418;SDS011;10870;51.384;10.316;2023-01-13T11:45:46;6.38;;;1.60;;
21418;SDS011;10870;51.384;10.316;2023-01-13T11:47:56;6.13;;;2.28;;
21418;SDS011;10870;51.384;10.316;2023-01-13T11:49:58;5.22;;;1.17;;
21418;SDS011;10870;51.384;10.316;2023-01-13T11:54:23;4.60;;;1.67;;
21418;SDS011;10870;51.384;10.316;2023-01-13T11:58:46;10.70;;;3.35;;
21418;SDS011;10870;51.384;10.316;2023-01-13T12:01:07;3.72;;;1.27;;
21418;SDS011;10870;51.384;10.316;2023-01-13T12:05:35;7.43;;;1.45;;
21418;SDS011;10870;51.384;10.316;2023-01-13T12:07:40;4.22;;;1.58;;
21418;SDS011;10870;51.384;10.316;2023-01-13T12:10:07;7.10;;;1.30;;
21418;SDS011;10870;51.384;10.316;2023-01-13T12:12:14;5.53;;;1.85;;
21418;SDS011;10870;51.384;10.316;2023-01-13T12:16:28;6.18;;;1.92;;
21418;SDS011;10870;51.384;10.316;2023-01-13T12:23:11;27.95;;;14.50;;
21418;SDS011;10870;51.384;10.316;2023-01-13T12:25:18;6.05;;;3.17;;
21418;SDS011;10870;51.384;10.316;2023-01-13T12:29:33;5.25;;;1.85;;
21418;SDS011;10870;51.384;10.316;2023-01-13T12:31:35;6.75;;;3.08;;
21418;SDS011;10870;51.384;10.316;2023-01-13T12:33:56;5.32;;;1.67;;
21418;SDS011;10870;51.384;10.316;2023-01-13T12:45:31;5.20;;;1.60;;
21418;SDS011;10870;51.384;10.316;2023-01-13T12:47:38;6.80;;;1.30;;
21418;SDS011;10870;51.384;10.316;2023-01-13T12:49:42;6.03;;;1.42;;
21418;SDS011;10870;51.384;10.316;2023-01-13T12:53:52;9.68;;;2.13;;
21418;SDS011;10870;51.384;10.316;2023-01-13T12:56:17;4.30;;;1.45;;
21418;SDS011;10870;51.384;10.316;2023-01-13T12:58:29;7.15;;;1.50;;
21418;SDS011;10870;51.384;10.316;2023-01-13T13:02:40;6.53;;;1.35;;
21418;SDS011;10870;51.384;10.316;2023-01-13T13:09:18;6.83;;;2.13;;
21418;SDS011;10870;51.384;10.316;2023-01-13T13:11:33;7.07;;;1.88;;
21418;SDS011;10870;51.384;10.316;2023-01-13T13:13:54;7.07;;;2.28;;
21418;SDS011;10870;51.384;10.316;2023-01-13T13:15:59;4.72;;;1.70;;
21418;SDS011;10870;51.384;10.316;2023-01-13T13:22:43;6.07;;;1.85;;
21418;SDS011;10870;51.384;10.316;2023-01-13T13:26:51;7.22;;;2.10;;
21418;SDS011;10870;51.384;10.316;2023-01-13T13:31:05;6.63;;;1.52;;
21418;SDS011;10870;51.384;10.316;2023-01-13T13:40:07;5.35;;;1.48;;
21418;SDS011;10870;51.384;10.316;2023-01-13T13:42:35;10.30;;;2.08;;
21418;SDS011;10870;51.384;10.316;2023-01-13T13:44:56;9.40;;;2.80;;
21418;SDS011;10870;51.384;10.316;2023-01-13T13:47:16;10.68;;;2.42;;
21418;SDS011;10870;51.384;10.316;2023-01-13T13:49:19;11.75;;;2.35;;
21418;SDS011;10870;51.384;10.316;2023-01-13T13:53:26;10.32;;;2.35;;
21418;SDS011;10870;51.384;10.316;2023-01-13T13:55:31;12.60;;;1.98;;
21418;SDS011;10870;51.384;10.316;2023-01-13T13:57:43;8.88;;;1.92;;
21418;SDS011;10870;51.384;10.316;2023-01-13T13:59:47;7.38;;;2.33;;
21418;SDS011;10870;51.384;10.316;2023-01-13T14:01:52;9.15;;;1.77;;
21418;SDS011;10870;51.384;10.316;2023-01-13T14:04:05;11.07;;;2.42;;
21418;SDS011;10870;51.384;10.316;2023-01-13T14:06:23;6.32;;;2.20;;
21418;SDS011;10870;51.384;10.316;2023-01-13T14:08:48;4.28;;;1.70;;
21418;SDS011;10870;51.384;10.316;2023-01-13T14:10:57;5.95;;;1.50;;
21418;SDS011;10870;51.384;10.316;2023-01-13T14:12:59;6.18;;;1.90;;
21418;SDS011;10870;51.384;10.316;2023-01-13T14:15:03;8.30;;;2.10;;
21418;SDS011;10870;51.384;10.316;2023-01-13T14:17:04;6.40;;;1.67;;
21418;SDS011;10870;51.384;10.316;2023-01-13T14:19:15;4.25;;;1.63;;
21418;SDS011;10870;51.384;10.316;2023-01-13T14:21:41;8.68;;;2.25;;
21418;SDS011;10870;51.384;10.316;2023-01-13T14:24:13;11.15;;;2.38;;
21418;SDS011;10870;51.384;10.316;2023-01-13T14:26:15;8.38;;;2.17;;